sensor_id;sensor_type;location;lat;lon;timestamp;P1;durP1;ratioP1;P2;durP2;ratioP2
6725;SDS011;3400;48.506;11.692;2023-02-28T00:01:10;5.13;;;3.40;;
6725;SDS011;3400;48.506;11.692;2023-02-28T00:03:38;5.83;;;3.60;;
6725;SDS011;3400;48.506;11.692;2023-02-28T00:06:07;5.90;;;3.57;;
6725;SDS011;3400;48.506;11.692;2023-02-28T00:08:35;5.83;;;3.50;;
6725;SDS011;3400;48.506;11.692;2023-02-28T00:11:03;5.27;;;3.40;;
6725;SDS011;3400;48.506;11.692;2023-02-28T00:13:31;4.90;;;3.77;;
6725;SDS011;3400;48.506;11.692;2023-02-28T00:16:01;4.87;;;3.73;;
6725;SDS011;3400;48.506;11.692;2023-02-28T00:18:29;4.00;;;3.20;;
6725;SDS011;3400;48.506;11.692;2023-02-28T00:20:57;3.87;;;3.50;;
6725;SDS011;3400;48.506;11.692;2023-02-28T00:23:25;4.40;;;4.00;;
6725;SDS011;3400;48.506;11.692;2023-02-28T00:25:53;4.77;;;3.73;;
6725;SDS011;3400;48.506;11.692;2023-02-28T00:28:21;4.43;;;3.60;;
6725;SDS011;3400;48.506;11.692;2023-02-28T00:30:49;4.13;;;3.73;;
6725;SDS011;3400;48.506;11.692;2023-02-28T00:33:18;4.97;;;3.83;;
6725;SDS011;3400;48.506;11.692;2023-02-28T00:35:47;4.30;;;3.67;;
6725;SDS011;3400;48.506;11.692;2023-02-28T00:38:14;5.57;;;3.80;;
6725;SDS011;3400;48.506;11.692;2023-02-28T00:40:43;5.47;;;3.90;;
6725;SDS011;3400;48.506;11.692;2023-02-28T00:43:10;4.57;;;4.00;;
6725;SDS011;3400;48.506;11.692;2023-02-28T00:45:38;4.00;;;3.70;;
6725;SDS011;3400;48.506;11.692;2023-02-28T00:48:06;4.47;;;3.73;;
6725;SDS011;3400;48.506;11.692;2023-02-28T00:50:35;4.43;;;3.83;;
6725;SDS011;3400;48.506;11.692;2023-02-28T00:53:03;6.13;;;4.00;;
6725;SDS011;3400;48.506;11.692;2023-02-28T00:55:31;4.40;;;3.97;;
6725;SDS011;3400;48.506;11.692;2023-02-28T00:57:59;5.33;;;4.37;;
6725;SDS011;3400;48.506;11.692;2023-02-28T01:00:27;4.83;;;4.40;;
6725;SDS011;3400;48.506;11.692;2023-02-28T01:02:55;5.60;;;4.77;;
6725;SDS011;3400;48.506;11.692;2023-02-28T01:05:23;5.63;;;4.87;;
6725;SDS011;3400;48.506;11.692;2023-02-28T01:07:52;4.50;;;4.00;;
6725;SDS011;3400;48.506;11.692;2023-02-28T01:10:20;4.93;;;4.30;;
6725;SDS011;3400;48.506;11.692;2023-02-28T01:12:48;5.23;;;4.30;;
6725;SDS011;3400;48.506;11.692;2023-02-28T01:15:16;5.23;;;4.27;;
6725;SDS011;3400;48.506;11.692;2023-02-28T01:17:44;6.03;;;4.80;;
6725;SDS011;3400;48.506;11.692;2023-02-28T01:20:12;7.40;;;4.93;;
6725;SDS011;3400;48.506;11.692;2023-02-28T01:22:40;6.90;;;4.10;;
6725;SDS011;3400;48.506;11.692;2023-02-28T01:25:10;6.03;;;3.97;;
6725;SDS011;3400;48.506;11.692;2023-02-28T01:27:38;5.50;;;4.43;;
6725;SDS011;3400;48.506;11.692;2023-02-28T01:30:06;4.97;;;4.47;;
6725;SDS011;3400;48.506;11.692;2023-02-28T01:32:34;5.40;;;4.90;;
6725;SDS011;3400;48.506;11.692;2023-02-28T01:35:03;5.90;;;4.37;;
6725;SDS011;3400;48.506;11.692;2023-02-28T01:37:31;7.07;;;5.20;;
6725;SDS011;3400;48.506;11.692;2023-02-28T01:39:59;6.63;;;4.67;;
6725;SDS011;3400;48.506;11.692;2023-02-28T01:42:28;4.73;;;4.20;;
6725;SDS011;3400;48.506;11.692;2023-02-28T01:45:01;6.60;;;5.43;;
6725;SDS011;3400;48.506;11.692;2023-02-28T01:47:31;6.83;;;5.50;;
6725;SDS011;3400;48.506;11.692;2023-02-28T01:50:01;6.03;;;5.00;;
6725;SDS011;3400;48.506;11.692;2023-02-28T01:52:30;6.63;;;5.00;;
6725;SDS011;3400;48.506;11.692;2023-02-28T01:54:58;5.80;;;5.20;;
6725;SDS011;3400;48.506;11.692;2023-02-28T01:57:29;7.40;;;5.70;;
6725;SDS011;3400;48.506;11.692;2023-02-28T02:00:05;8.67;;;5.57;;
6725;SDS011;3400;48.506;11.692;2023-02-28T02:02:45;6.10;;;4.83;;
6725;SDS011;3400;48.506;11.692;2023-02-28T02:05:15;6.80;;;5.90;;
6725;SDS011;3400;48.506;11.692;2023-02-28T02:07:43;5.60;;;4.80;;
6725;SDS011;3400;48.506;11.692;2023-02-28T02:10:14;7.10;;;5.50;;
6725;SDS011;3400;48.506;11.692;2023-02-28T02:12:50;5.70;;;4.87;;
6725;SDS011;3400;48.506;11.692;2023-02-28T02:15:23;5.80;;;4.73;;
6725;SDS011;3400;48.506;11.692;2023-02-28T02:17:53;5.73;;;5.13;;
6725;SDS011;3400;48.506;11.692;2023-02-28T02:23:26;7.57;;;5.63;;
6725;SDS011;3400;48.506;11.692;2023-02-28T02:25:58;7.90;;;5.60;;
6725;SDS011;3400;48.506;11.692;2023-02-28T02:28:40;6.97;;;5.90;;
6725;SDS011;3400;48.506;11.692;2023-02-28T02:34:24;9.03;;;6.13;;
6725;SDS011;3400;48.506;11.692;2023-02-28T02:36:58;7.20;;;5.03;;
6725;SDS011;3400;48.506;11.692;2023-02-28T02:39:30;8.57;;;5.53;;
6725;SDS011;3400;48.506;11.692;2023-02-28T02:42:00;8.97;;;5.30;;
6725;SDS011;3400;48.506;11.692;2023-02-28T02:44:30;6.73;;;5.30;;
6725;SDS011;3400;48.506;11.692;2023-02-28T02:46:59;7.03;;;5.90;;
6725;SDS011;3400;48.506;11.692;2023-02-28T02:49:30;7.03;;;5.43;;
6725;SDS011;3400;48.506;11.692;2023-02-28T02:52:02;7.47;;;5.37;;
6725;SDS011;3400;48.506;11.692;2023-02-28T02:54:32;8.50;;;5.90;;
6725;SDS011;3400;48.506;11.692;2023-02-28T02:57:01;6.60;;;5.47;;
6725;SDS011;3400;48.506;11.692;2023-02-28T02:59:30;9.17;;;5.93;;
6725;SDS011;3400;48.506;11.692;2023-02-28T03:02:00;6.53;;;5.93;;
6725;SDS011;3400;48.506;11.692;2023-02-28T03:04:32;7.90;;;6.57;;
6725;SDS011;3400;48.506;11.692;2023-02-28T03:07:00;9.47;;;6.40;;
6725;SDS011;3400;48.506;11.692;2023-02-28T03:09:28;7.07;;;6.10;;
6725;SDS011;3400;48.506;11.692;2023-02-28T03:11:56;8.43;;;6.67;;
6725;SDS011;3400;48.506;11.692;2023-02-28T03:14:30;7.73;;;5.97;;
6725;SDS011;3400;48.506;11.692;2023-02-28T03:17:12;6.47;;;5.70;;
6725;SDS011;3400;48.506;11.692;2023-02-28T03:19:54;6.73;;;5.57;;
6725;SDS011;3400;48.506;11.692;2023-02-28T03:22:33;6.03;;;5.43;;
6725;SDS011;3400;48.506;11.692;2023-02-28T03:25:06;7.73;;;6.33;;
6725;SDS011;3400;48.506;11.692;2023-02-28T03:27:36;6.63;;;5.60;;
6725;SDS011;3400;48.506;11.692;2023-02-28T03:30:09;10.70;;;6.53;;
6725;SDS011;3400;48.506;11.692;2023-02-28T03:32:38;7.87;;;6.10;;
6725;SDS011;3400;48.506;11.692;2023-02-28T03:35:10;8.20;;;6.07;;
6725;SDS011;3400;48.506;11.692;2023-02-28T03:37:40;6.80;;;5.83;;
6725;SDS011;3400;48.506;11.692;2023-02-28T03:40:10;9.83;;;6.67;;
6725;SDS011;3400;48.506;11.692;2023-02-28T03:42:41;7.60;;;6.27;;
6725;SDS011;3400;48.506;11.692;2023-02-28T03:45:11;6.50;;;5.80;;
6725;SDS011;3400;48.506;11.692;2023-02-28T03:47:41;7.20;;;5.80;;
6725;SDS011;3400;48.506;11.692;2023-02-28T03:50:12;8.57;;;7.10;;
6725;SDS011;3400;48.506;11.692;2023-02-28T03:52:43;8.20;;;6.47;;
6725;SDS011;3400;48.506;11.692;2023-02-28T03:55:12;7.70;;;6.20;;
6725;SDS011;3400;48.506;11.692;2023-02-28T03:57:43;7.03;;;5.80;;
6725;SDS011;3400;48.506;11.692;2023-02-28T04:00:16;9.13;;;6.60;;
6725;SDS011;3400;48.506;11.692;2023-02-28T04:02:45;8.10;;;6.43;;
6725;SDS011;3400;48.506;11.692;2023-02-28T04:05:19;7.10;;;5.93;;
6725;SDS011;3400;48.506;11.692;2023-02-28T04:07:48;8.73;;;6.60;;
6725;SDS011;3400;48.506;11.692;2023-02-28T04:10:16;7.67;;;6.30;;
6725;SDS011;3400;48.506;11.692;2023-02-28T04:12:44;8.60;;;6.60;;
6725;SDS011;3400;48.506;11.692;2023-02-28T04:15:12;8.00;;;7.07;;
6725;SDS011;3400;48.506;11.692;2023-02-28T04:17:39;8.17;;;6.70;;
6725;SDS011;3400;48.506;11.692;2023-02-28T04:20:08;9.87;;;7.33;;
6725;SDS011;3400;48.506;11.692;2023-02-28T04:22:38;10.07;;;7.53;;
6725;SDS011;3400;48.506;11.692;2023-02-28T04:25:06;7.27;;;6.33;;
6725;SDS011;3400;48.506;11.692;2023-02-28T04:27:34;7.70;;;6.60;;
6725;SDS011;3400;48.506;11.692;2023-02-28T04:30:02;8.20;;;7.13;;
6725;SDS011;3400;48.506;11.692;2023-02-28T04:32:30;8.27;;;6.60;;
6725;SDS011;3400;48.506;11.692;2023-02-28T04:34:58;7.87;;;7.00;;
6725;SDS011;3400;48.506;11.692;2023-02-28T04:37:26;7.87;;;6.63;;
6725;SDS011;3400;48.506;11.692;2023-02-28T04:39:55;8.50;;;7.27;;
6725;SDS011;3400;48.506;11.692;2023-02-28T04:42:23;9.30;;;7.33;;
6725;SDS011;3400;48.506;11.692;2023-02-28T04:44:51;8.73;;;7.47;;
6725;SDS011;3400;48.506;11.692;2023-02-28T04:47:19;10.67;;;7.73;;
6725;SDS011;3400;48.506;11.692;2023-02-28T04:49:47;9.87;;;7.37;;
6725;SDS011;3400;48.506;11.692;2023-02-28T04:52:15;10.20;;;6.77;;
6725;SDS011;3400;48.506;11.692;2023-02-28T04:54:43;9.03;;;8.13;;
6725;SDS011;3400;48.506;11.692;2023-02-28T04:57:12;10.17;;;8.13;;
6725;SDS011;3400;48.506;11.692;2023-02-28T04:59:40;9.67;;;7.93;;
6725;SDS011;3400;48.506;11.692;2023-02-28T05:02:08;8.43;;;7.53;;
6725;SDS011;3400;48.506;11.692;2023-02-28T05:04:36;9.30;;;7.67;;
6725;SDS011;3400;48.506;11.692;2023-02-28T05:07:03;9.50;;;7.23;;
6725;SDS011;3400;48.506;11.692;2023-02-28T05:09:31;10.17;;;8.07;;
6725;SDS011;3400;48.506;11.692;2023-02-28T05:12:00;8.83;;;7.50;;
6725;SDS011;3400;48.506;11.692;2023-02-28T05:14:30;8.87;;;7.07;;
6725;SDS011;3400;48.506;11.692;2023-02-28T05:16:58;8.23;;;7.00;;
6725;SDS011;3400;48.506;11.692;2023-02-28T05:19:26;11.37;;;7.97;;
6725;SDS011;3400;48.506;11.692;2023-02-28T05:21:54;11.10;;;8.30;;
6725;SDS011;3400;48.506;11.692;2023-02-28T05:24:22;9.23;;;7.93;;
6725;SDS011;3400;48.506;11.692;2023-02-28T05:26:51;8.70;;;7.77;;
6725;SDS011;3400;48.506;11.692;2023-02-28T05:29:19;9.27;;;8.20;;
6725;SDS011;3400;48.506;11.692;2023-02-28T05:31:49;9.93;;;7.73;;
6725;SDS011;3400;48.506;11.692;2023-02-28T05:34:17;9.63;;;7.43;;
6725;SDS011;3400;48.506;11.692;2023-02-28T05:36:45;10.67;;;8.00;;
6725;SDS011;3400;48.506;11.692;2023-02-28T05:39:12;13.20;;;8.23;;
6725;SDS011;3400;48.506;11.692;2023-02-28T05:41:40;10.47;;;7.77;;
6725;SDS011;3400;48.506;11.692;2023-02-28T05:44:08;10.77;;;8.63;;
6725;SDS011;3400;48.506;11.692;2023-02-28T05:46:36;10.23;;;8.07;;
6725;SDS011;3400;48.506;11.692;2023-02-28T05:49:05;12.07;;;8.43;;
6725;SDS011;3400;48.506;11.692;2023-02-28T05:51:33;23.02;;;15.85;;
6725;SDS011;3400;48.506;11.692;2023-02-28T05:54:02;18.90;;;12.77;;
6725;SDS011;3400;48.506;11.692;2023-02-28T05:56:30;15.67;;;11.23;;
6725;SDS011;3400;48.506;11.692;2023-02-28T05:59:00;13.20;;;10.60;;
6725;SDS011;3400;48.506;11.692;2023-02-28T06:01:32;13.03;;;10.43;;
6725;SDS011;3400;48.506;11.692;2023-02-28T06:04:00;12.50;;;8.67;;
6725;SDS011;3400;48.506;11.692;2023-02-28T06:06:30;12.93;;;8.10;;
6725;SDS011;3400;48.506;11.692;2023-02-28T06:09:00;11.90;;;8.40;;
6725;SDS011;3400;48.506;11.692;2023-02-28T06:11:28;10.50;;;7.80;;
6725;SDS011;3400;48.506;11.692;2023-02-28T06:13:56;10.87;;;8.27;;
6725;SDS011;3400;48.506;11.692;2023-02-28T06:16:25;11.20;;;8.17;;
6725;SDS011;3400;48.506;11.692;2023-02-28T06:18:54;10.07;;;8.43;;
6725;SDS011;3400;48.506;11.692;2023-02-28T06:21:22;10.83;;;8.17;;
6725;SDS011;3400;48.506;11.692;2023-02-28T06:23:52;13.90;;;8.43;;
6725;SDS011;3400;48.506;11.692;2023-02-28T06:26:19;11.77;;;8.00;;
6725;SDS011;3400;48.506;11.692;2023-02-28T06:28:47;12.20;;;8.70;;
6725;SDS011;3400;48.506;11.692;2023-02-28T06:31:16;9.60;;;8.53;;
6725;SDS011;3400;48.506;11.692;2023-02-28T06:33:44;10.10;;;8.30;;
6725;SDS011;3400;48.506;11.692;2023-02-28T06:36:12;10.00;;;8.27;;
6725;SDS011;3400;48.506;11.692;2023-02-28T06:38:41;12.53;;;7.93;;
6725;SDS011;3400;48.506;11.692;2023-02-28T06:41:10;11.07;;;8.73;;
6725;SDS011;3400;48.506;11.692;2023-02-28T06:43:39;9.67;;;7.33;;
6725;SDS011;3400;48.506;11.692;2023-02-28T06:46:08;11.10;;;8.07;;
6725;SDS011;3400;48.506;11.692;2023-02-28T06:48:36;13.80;;;7.67;;
6725;SDS011;3400;48.506;11.692;2023-02-28T06:51:04;8.83;;;6.90;;
6725;SDS011;3400;48.506;11.692;2023-02-28T06:53:33;8.57;;;6.87;;
6725;SDS011;3400;48.506;11.692;2023-02-28T06:56:03;10.27;;;7.67;;
6725;SDS011;3400;48.506;11.692;2023-02-28T06:58:34;10.23;;;7.03;;
6725;SDS011;3400;48.506;11.692;2023-02-28T07:01:02;6.97;;;6.27;;
6725;SDS011;3400;48.506;11.692;2023-02-28T07:03:29;8.07;;;6.23;;
6725;SDS011;3400;48.506;11.692;2023-02-28T07:05:57;7.13;;;6.33;;
6725;SDS011;3400;48.506;11.692;2023-02-28T07:08:25;13.07;;;7.43;;
6725;SDS011;3400;48.506;11.692;2023-02-28T07:10:53;7.13;;;5.93;;
6725;SDS011;3400;48.506;11.692;2023-02-28T07:13:21;9.90;;;7.00;;
6725;SDS011;3400;48.506;11.692;2023-02-28T07:15:57;10.37;;;6.43;;
6725;SDS011;3400;48.506;11.692;2023-02-28T07:18:25;8.30;;;7.23;;
6725;SDS011;3400;48.506;11.692;2023-02-28T07:20:53;9.80;;;7.20;;
6725;SDS011;3400;48.506;11.692;2023-02-28T07:23:21;8.50;;;6.77;;
6725;SDS011;3400;48.506;11.692;2023-02-28T07:25:49;10.63;;;6.30;;
6725;SDS011;3400;48.506;11.692;2023-02-28T07:28:17;10.93;;;6.93;;
6725;SDS011;3400;48.506;11.692;2023-02-28T07:30:45;7.33;;;5.93;;
6725;SDS011;3400;48.506;11.692;2023-02-28T07:33:15;9.87;;;6.13;;
6725;SDS011;3400;48.506;11.692;2023-02-28T07:35:43;9.00;;;6.00;;
6725;SDS011;3400;48.506;11.692;2023-02-28T07:38:11;8.60;;;6.23;;
6725;SDS011;3400;48.506;11.692;2023-02-28T07:40:39;8.93;;;6.23;;
6725;SDS011;3400;48.506;11.692;2023-02-28T07:43:07;6.73;;;5.97;;
6725;SDS011;3400;48.506;11.692;2023-02-28T07:45:35;8.23;;;6.37;;
6725;SDS011;3400;48.506;11.692;2023-02-28T07:48:03;7.40;;;5.80;;
6725;SDS011;3400;48.506;11.692;2023-02-28T07:50:32;8.07;;;6.57;;
6725;SDS011;3400;48.506;11.692;2023-02-28T07:53:00;8.57;;;6.70;;
6725;SDS011;3400;48.506;11.692;2023-02-28T07:55:28;7.63;;;6.40;;
6725;SDS011;3400;48.506;11.692;2023-02-28T07:57:56;10.40;;;7.17;;
6725;SDS011;3400;48.506;11.692;2023-02-28T08:00:24;8.83;;;6.00;;
6725;SDS011;3400;48.506;11.692;2023-02-28T08:02:52;8.37;;;6.23;;
6725;SDS011;3400;48.506;11.692;2023-02-28T08:05:20;13.43;;;6.60;;
6725;SDS011;3400;48.506;11.692;2023-02-28T08:07:49;8.23;;;6.23;;
6725;SDS011;3400;48.506;11.692;2023-02-28T08:10:19;9.23;;;7.00;;
6725;SDS011;3400;48.506;11.692;2023-02-28T08:12:46;8.37;;;6.57;;
6725;SDS011;3400;48.506;11.692;2023-02-28T08:15:14;7.77;;;6.20;;
6725;SDS011;3400;48.506;11.692;2023-02-28T08:17:42;8.80;;;6.00;;
6725;SDS011;3400;48.506;11.692;2023-02-28T08:20:10;7.90;;;6.10;;
6725;SDS011;3400;48.506;11.692;2023-02-28T08:22:38;6.60;;;5.87;;
6725;SDS011;3400;48.506;11.692;2023-02-28T08:25:09;8.13;;;6.27;;
6725;SDS011;3400;48.506;11.692;2023-02-28T08:27:36;7.30;;;5.80;;
6725;SDS011;3400;48.506;11.692;2023-02-28T08:30:05;7.67;;;6.50;;
6725;SDS011;3400;48.506;11.692;2023-02-28T08:32:33;10.20;;;6.43;;
6725;SDS011;3400;48.506;11.692;2023-02-28T08:35:01;8.20;;;6.37;;
6725;SDS011;3400;48.506;11.692;2023-02-28T08:37:29;8.03;;;5.87;;
6725;SDS011;3400;48.506;11.692;2023-02-28T08:39:57;8.83;;;6.40;;
6725;SDS011;3400;48.506;11.692;2023-02-28T08:42:26;8.20;;;6.40;;
6725;SDS011;3400;48.506;11.692;2023-02-28T08:44:54;10.73;;;6.90;;
6725;SDS011;3400;48.506;11.692;2023-02-28T08:47:22;8.10;;;6.67;;
6725;SDS011;3400;48.506;11.692;2023-02-28T08:49:50;7.87;;;6.60;;
6725;SDS011;3400;48.506;11.692;2023-02-28T08:52:17;8.53;;;7.17;;
6725;SDS011;3400;48.506;11.692;2023-02-28T08:54:45;7.37;;;6.00;;
6725;SDS011;3400;48.506;11.692;2023-02-28T08:57:13;7.27;;;6.23;;
6725;SDS011;3400;48.506;11.692;2023-02-28T08:59:43;7.97;;;6.63;;
6725;SDS011;3400;48.506;11.692;2023-02-28T09:02:11;7.30;;;6.53;;
6725;SDS011;3400;48.506;11.692;2023-02-28T09:04:40;8.80;;;6.97;;
6725;SDS011;3400;48.506;11.692;2023-02-28T09:07:08;7.90;;;6.50;;
6725;SDS011;3400;48.506;11.692;2023-02-28T09:09:35;7.60;;;6.60;;
6725;SDS011;3400;48.506;11.692;2023-02-28T09:12:03;7.90;;;6.90;;
6725;SDS011;3400;48.506;11.692;2023-02-28T09:14:31;9.90;;;6.47;;
6725;SDS011;3400;48.506;11.692;2023-02-28T09:17:00;7.73;;;6.87;;
6725;SDS011;3400;48.506;11.692;2023-02-28T09:19:28;8.30;;;6.87;;
6725;SDS011;3400;48.506;11.692;2023-02-28T09:21:56;10.17;;;6.70;;
6725;SDS011;3400;48.506;11.692;2023-02-28T09:24:24;8.87;;;7.03;;
6725;SDS011;3400;48.506;11.692;2023-02-28T09:26:52;6.67;;;5.43;;
6725;SDS011;3400;48.506;11.692;2023-02-28T09:29:20;6.77;;;6.07;;
6725;SDS011;3400;48.506;11.692;2023-02-28T09:31:47;7.07;;;5.80;;
6725;SDS011;3400;48.506;11.692;2023-02-28T09:34:17;7.17;;;6.40;;
6725;SDS011;3400;48.506;11.692;2023-02-28T09:36:45;7.97;;;5.97;;
6725;SDS011;3400;48.506;11.692;2023-02-28T09:39:13;6.13;;;5.40;;
6725;SDS011;3400;48.506;11.692;2023-02-28T09:41:42;6.40;;;5.77;;
6725;SDS011;3400;48.506;11.692;2023-02-28T09:44:15;8.73;;;6.27;;
6725;SDS011;3400;48.506;11.692;2023-02-28T09:46:46;8.90;;;6.67;;
6725;SDS011;3400;48.506;11.692;2023-02-28T09:49:17;7.00;;;6.23;;
6725;SDS011;3400;48.506;11.692;2023-02-28T09:51:47;7.70;;;6.53;;
6725;SDS011;3400;48.506;11.692;2023-02-28T09:54:17;6.53;;;5.80;;
6725;SDS011;3400;48.506;11.692;2023-02-28T09:56:47;6.43;;;5.80;;
6725;SDS011;3400;48.506;11.692;2023-02-28T09:59:22;10.30;;;6.50;;
6725;SDS011;3400;48.506;11.692;2023-02-28T10:01:54;8.00;;;6.23;;
6725;SDS011;3400;48.506;11.692;2023-02-28T10:04:33;7.63;;;6.37;;
6725;SDS011;3400;48.506;11.692;2023-02-28T10:07:03;7.07;;;6.20;;
6725;SDS011;3400;48.506;11.692;2023-02-28T10:09:44;7.07;;;6.13;;
6725;SDS011;3400;48.506;11.692;2023-02-28T10:12:13;8.70;;;6.87;;
6725;SDS011;3400;48.506;11.692;2023-02-28T10:14:43;7.30;;;5.93;;
6725;SDS011;3400;48.506;11.692;2023-02-28T10:17:13;7.03;;;6.27;;
6725;SDS011;3400;48.506;11.692;2023-02-28T10:19:44;8.57;;;6.57;;
6725;SDS011;3400;48.506;11.692;2023-02-28T10:22:14;7.20;;;6.40;;
6725;SDS011;3400;48.506;11.692;2023-02-28T10:24:45;6.80;;;5.97;;
6725;SDS011;3400;48.506;11.692;2023-02-28T10:27:14;7.97;;;6.20;;
6725;SDS011;3400;48.506;11.692;2023-02-28T10:29:43;7.63;;;6.30;;
6725;SDS011;3400;48.506;11.692;2023-02-28T10:32:13;8.50;;;6.53;;
6725;SDS011;3400;48.506;11.692;2023-02-28T10:34:41;8.10;;;7.30;;
6725;SDS011;3400;48.506;11.692;2023-02-28T10:37:11;11.83;;;7.23;;
6725;SDS011;3400;48.506;11.692;2023-02-28T10:39:40;7.67;;;6.87;;
6725;SDS011;3400;48.506;11.692;2023-02-28T10:42:21;7.83;;;6.07;;
6725;SDS011;3400;48.506;11.692;2023-02-28T10:47:34;7.50;;;6.70;;
6725;SDS011;3400;48.506;11.692;2023-02-28T10:50:03;7.27;;;6.30;;
6725;SDS011;3400;48.506;11.692;2023-02-28T10:52:37;7.30;;;6.60;;
6725;SDS011;3400;48.506;11.692;2023-02-28T10:55:15;7.23;;;6.27;;
6725;SDS011;3400;48.506;11.692;2023-02-28T10:57:43;8.07;;;6.90;;
6725;SDS011;3400;48.506;11.692;2023-02-28T11:00:14;7.70;;;6.60;;
6725;SDS011;3400;48.506;11.692;2023-02-28T11:02:42;7.77;;;7.03;;
6725;SDS011;3400;48.506;11.692;2023-02-28T11:05:28;7.73;;;6.53;;
6725;SDS011;3400;48.506;11.692;2023-02-28T11:07:59;7.43;;;6.67;;
6725;SDS011;3400;48.506;11.692;2023-02-28T11:10:28;7.00;;;6.30;;
6725;SDS011;3400;48.506;11.692;2023-02-28T11:13:00;7.87;;;7.07;;
6725;SDS011;3400;48.506;11.692;2023-02-28T11:15:29;8.93;;;6.90;;
6725;SDS011;3400;48.506;11.692;2023-02-28T11:17:58;9.93;;;7.40;;
6725;SDS011;3400;48.506;11.692;2023-02-28T11:20:28;7.00;;;6.07;;
6725;SDS011;3400;48.506;11.692;2023-02-28T11:22:58;8.07;;;6.03;;
6725;SDS011;3400;48.506;11.692;2023-02-28T11:25:29;7.40;;;6.57;;
6725;SDS011;3400;48.506;11.692;2023-02-28T11:27:58;6.60;;;5.90;;
6725;SDS011;3400;48.506;11.692;2023-02-28T11:30:29;7.97;;;6.47;;
6725;SDS011;3400;48.506;11.692;2023-02-28T11:32:57;8.20;;;6.53;;
6725;SDS011;3400;48.506;11.692;2023-02-28T11:35:26;7.67;;;6.63;;
6725;SDS011;3400;48.506;11.692;2023-02-28T11:37:55;8.17;;;6.93;;
6725;SDS011;3400;48.506;11.692;2023-02-28T11:40:28;8.43;;;6.63;;
6725;SDS011;3400;48.506;11.692;2023-02-28T11:43:01;7.70;;;6.90;;
6725;SDS011;3400;48.506;11.692;2023-02-28T11:45:37;7.10;;;6.40;;
6725;SDS011;3400;48.506;11.692;2023-02-28T11:48:12;7.90;;;7.10;;
6725;SDS011;3400;48.506;11.692;2023-02-28T11:50:45;7.20;;;6.50;;
6725;SDS011;3400;48.506;11.692;2023-02-28T11:53:17;7.03;;;6.33;;
6725;SDS011;3400;48.506;11.692;2023-02-28T11:55:49;7.67;;;6.87;;
6725;SDS011;3400;48.506;11.692;2023-02-28T11:58:27;8.33;;;7.07;;
6725;SDS011;3400;48.506;11.692;2023-02-28T12:00:59;8.17;;;7.00;;
6725;SDS011;3400;48.506;11.692;2023-02-28T12:03:31;7.57;;;6.77;;
6725;SDS011;3400;48.506;11.692;2023-02-28T12:06:06;8.63;;;7.57;;
6725;SDS011;3400;48.506;11.692;2023-02-28T12:08:46;8.93;;;7.60;;
6725;SDS011;3400;48.506;11.692;2023-02-28T12:11:19;8.30;;;7.27;;
6725;SDS011;3400;48.506;11.692;2023-02-28T12:14:14;9.60;;;7.53;;
6725;SDS011;3400;48.506;11.692;2023-02-28T12:16:45;8.10;;;6.97;;
6725;SDS011;3400;48.506;11.692;2023-02-28T12:19:19;7.83;;;6.90;;
6725;SDS011;3400;48.506;11.692;2023-02-28T12:21:57;8.10;;;7.10;;
6725;SDS011;3400;48.506;11.692;2023-02-28T12:24:29;7.87;;;7.13;;
6725;SDS011;3400;48.506;11.692;2023-02-28T12:27:02;8.00;;;7.13;;
6725;SDS011;3400;48.506;11.692;2023-02-28T12:29:32;7.83;;;7.07;;
6725;SDS011;3400;48.506;11.692;2023-02-28T12:32:01;7.57;;;6.77;;
6725;SDS011;3400;48.506;11.692;2023-02-28T12:34:32;9.17;;;6.80;;
6725;SDS011;3400;48.506;11.692;2023-02-28T12:37:01;14.60;;;11.27;;
6725;SDS011;3400;48.506;11.692;2023-02-28T12:39:32;8.00;;;7.20;;
6725;SDS011;3400;48.506;11.692;2023-02-28T12:42:03;10.40;;;7.43;;
6725;SDS011;3400;48.506;11.692;2023-02-28T12:44:34;7.10;;;6.40;;
6725;SDS011;3400;48.506;11.692;2023-02-28T12:47:04;9.50;;;7.17;;
6725;SDS011;3400;48.506;11.692;2023-02-28T12:49:33;8.97;;;7.00;;
6725;SDS011;3400;48.506;11.692;2023-02-28T12:52:02;8.67;;;7.07;;
6725;SDS011;3400;48.506;11.692;2023-02-28T12:54:32;8.03;;;7.23;;
6725;SDS011;3400;48.506;11.692;2023-02-28T12:57:06;8.20;;;6.57;;
6725;SDS011;3400;48.506;11.692;2023-02-28T12:59:37;8.43;;;7.00;;
6725;SDS011;3400;48.506;11.692;2023-02-28T13:02:17;8.73;;;6.80;;
6725;SDS011;3400;48.506;11.692;2023-02-28T13:05:07;7.80;;;7.00;;
6725;SDS011;3400;48.506;11.692;2023-02-28T13:10:39;6.83;;;6.23;;
6725;SDS011;3400;48.506;11.692;2023-02-28T13:13:11;9.73;;;8.13;;
6725;SDS011;3400;48.506;11.692;2023-02-28T13:15:41;7.70;;;7.00;;
6725;SDS011;3400;48.506;11.692;2023-02-28T13:18:27;8.67;;;6.90;;
6725;SDS011;3400;48.506;11.692;2023-02-28T13:20:56;7.97;;;7.17;;
6725;SDS011;3400;48.506;11.692;2023-02-28T13:23:38;9.80;;;7.17;;
6725;SDS011;3400;48.506;11.692;2023-02-28T13:26:06;8.70;;;7.13;;
6725;SDS011;3400;48.506;11.692;2023-02-28T13:31:31;9.33;;;7.53;;
6725;SDS011;3400;48.506;11.692;2023-02-28T13:34:12;8.60;;;7.73;;
6725;SDS011;3400;48.506;11.692;2023-02-28T13:36:41;7.20;;;6.50;;
6725;SDS011;3400;48.506;11.692;2023-02-28T13:42:22;8.13;;;7.30;;
6725;SDS011;3400;48.506;11.692;2023-02-28T13:47:50;8.67;;;7.87;;
6725;SDS011;3400;48.506;11.692;2023-02-28T13:50:29;9.23;;;7.90;;
6725;SDS011;3400;48.506;11.692;2023-02-28T13:53:03;8.77;;;7.23;;
6725;SDS011;3400;48.506;11.692;2023-02-28T13:55:35;9.40;;;8.47;;
6725;SDS011;3400;48.506;11.692;2023-02-28T13:58:09;10.40;;;7.70;;
6725;SDS011;3400;48.506;11.692;2023-02-28T14:00:48;8.13;;;7.33;;
6725;SDS011;3400;48.506;11.692;2023-02-28T14:03:31;7.60;;;6.90;;
6725;SDS011;3400;48.506;11.692;2023-02-28T14:06:09;9.17;;;7.60;;
6725;SDS011;3400;48.506;11.692;2023-02-28T14:08:42;10.27;;;8.30;;
6725;SDS011;3400;48.506;11.692;2023-02-28T14:11:23;9.70;;;7.67;;
6725;SDS011;3400;48.506;11.692;2023-02-28T14:13:51;8.37;;;7.50;;
6725;SDS011;3400;48.506;11.692;2023-02-28T14:16:20;11.80;;;7.67;;
6725;SDS011;3400;48.506;11.692;2023-02-28T14:18:51;9.10;;;8.17;;
6725;SDS011;3400;48.506;11.692;2023-02-28T14:21:23;9.97;;;8.13;;
6725;SDS011;3400;48.506;11.692;2023-02-28T14:24:19;10.10;;;8.00;;
6725;SDS011;3400;48.506;11.692;2023-02-28T14:32:31;9.73;;;7.97;;
6725;SDS011;3400;48.506;11.692;2023-02-28T14:35:05;10.17;;;8.50;;
6725;SDS011;3400;48.506;11.692;2023-02-28T14:37:41;17.17;;;8.47;;
6725;SDS011;3400;48.506;11.692;2023-02-28T14:40:12;10.60;;;7.83;;
6725;SDS011;3400;48.506;11.692;2023-02-28T14:42:46;9.60;;;7.67;;
6725;SDS011;3400;48.506;11.692;2023-02-28T14:45:18;9.43;;;7.93;;
6725;SDS011;3400;48.506;11.692;2023-02-28T14:47:47;8.70;;;7.67;;
6725;SDS011;3400;48.506;11.692;2023-02-28T14:50:21;10.17;;;9.07;;
6725;SDS011;3400;48.506;11.692;2023-02-28T14:52:52;9.80;;;7.97;;
6725;SDS011;3400;48.506;11.692;2023-02-28T14:55:23;11.47;;;8.50;;
6725;SDS011;3400;48.506;11.692;2023-02-28T14:57:52;10.27;;;8.63;;
6725;SDS011;3400;48.506;11.692;2023-02-28T15:00:21;9.60;;;8.43;;
6725;SDS011;3400;48.506;11.692;2023-02-28T15:02:50;12.67;;;9.47;;
6725;SDS011;3400;48.506;11.692;2023-02-28T15:05:29;10.73;;;8.33;;
6725;SDS011;3400;48.506;11.692;2023-02-28T15:08:01;10.33;;;8.20;;
6725;SDS011;3400;48.506;11.692;2023-02-28T15:10:30;9.27;;;8.07;;
6725;SDS011;3400;48.506;11.692;2023-02-28T15:12:58;11.10;;;8.30;;
6725;SDS011;3400;48.506;11.692;2023-02-28T15:15:27;11.93;;;9.10;;
6725;SDS011;3400;48.506;11.692;2023-02-28T15:18:01;12.30;;;9.73;;
6725;SDS011;3400;48.506;11.692;2023-02-28T15:20:31;9.90;;;8.07;;
6725;SDS011;3400;48.506;11.692;2023-02-28T15:22:59;11.27;;;8.97;;
6725;SDS011;3400;48.506;11.692;2023-02-28T15:25:28;9.40;;;7.70;;
6725;SDS011;3400;48.506;11.692;2023-02-28T15:27:57;9.30;;;8.23;;
6725;SDS011;3400;48.506;11.692;2023-02-28T15:30:26;15.20;;;9.90;;
6725;SDS011;3400;48.506;11.692;2023-02-28T15:33:02;11.67;;;9.07;;
6725;SDS011;3400;48.506;11.692;2023-02-28T15:35:32;11.87;;;8.63;;
6725;SDS011;3400;48.506;11.692;2023-02-28T15:38:01;11.83;;;9.20;;
6725;SDS011;3400;48.506;11.692;2023-02-28T15:40:31;10.43;;;8.83;;
6725;SDS011;3400;48.506;11.692;2023-02-28T15:43:03;12.33;;;9.77;;